Deer Lake, Newfoundland

1:48 PM NDT on September 19, 2014 (GMT -0230)
Deer Lake | Change Station
CLOSE
Current Station
Airport
Location: Deer Lake,
Elevation: 72 ft
Nearby Weather Stations

Elev 72 ft 49.21 °N, 57.40 °W | Updated 18 minutes ago

Scattered Clouds
Scattered Clouds
52 °F
Feels Like 52 °F
N
10
Wind Variable Wind from West
Gusts 23 mph

Today is forecast to be nearly the same temperature as yesterday.

Today
High -- | Low -- °F
--% Chance of Precip.
Yesterday
High -- | Low -- °F
Precip. -- in
7:01 AM 7:24 PM
Waning Crescent, 18% visible
Pressure 29.92 in
Visibility 15.0 miles
Clouds Scattered Clouds 4500 ft
Dew Point 32 °F
Humidity 47%
Rainfall 0.00 in
Snow Depth Not available.
UV 4 out of 12
Pollen Not available.
Air Quality Not available.
Flu Activity Not available.
METAR CYDF 191600Z 28009G20KT 260V320 15SM SCT045 11/M00 A2991 RMK SC4 SLP130

More Conditions Fewer Conditions

Pressure 29.92 in
Visibility 15.0 miles
Clouds Scattered Clouds 4500 ft
Dew Point 32 °F
Humidity 47%
Rainfall 0.00 in
Snow Depth Not available.
UV 4 out of 12
Pollen Not available.
Air Quality Not available.
Flu Activity Not available.
METAR CYDF 191600Z 28009G20KT 260V320 15SM SCT045 11/M00 A2991 RMK SC4 SLP130

More Conditions Fewer Conditions

10-Day Weather Forecast

Almanac

Astronomy

Sep. 19, 2014 Rise Set
Actual Time 7:01 AM NDT 7:24 PM NDT
Civil Twilight 6:29 AM NDT 7:55 PM NDT
Nautical Twilight 5:52 AM NDT 8:33 PM NDT
Astronomical Twilight 5:12 AM NDT 9:12 PM NDT
Moon 2:23 AM NDT 5:05 PM NDT
Length of Visible Light 13h 26m
Length of Day
12h 22m
Tomorrow will be 3m 36s shorter.
Waning Crescent, 18% of the Moon is Illuminated
Today
Waning Crescent
Sep 24
New
Oct 1
First Quarter
Oct 8
Full
Oct 15
Last Quarter

Today's Extremes

Country Highs Country Lows

Community

WunderPhotos

Upload Photos

1,754,645 photos uploaded!

WunderBlogs® & News

By Dr. Jeff Masters
Director of Meteorology, Weather Underground
By Kari Strenfel
Meteorologist, Weather Underground
By Christopher C. Burt
Weather Historian, Weather Underground
September 19, 2014
September 19, 2014
September 19, 2014

Nearby

Snow Depth

Not available.

Earthquake Activity

City Distance Mag. Time & Date
No recent earthquake activity has been reported nearby.
Minimum magnitude displayed is 2.5.

Coastal Water Temperatures

Place Temperature
No Stations Reporting

Nearby Weather Stations